Back to Top

Language: 

My Weather Underground Personal Weather Station Historical Data with Graphs...

Delerius Weather Station Historical Data
Daily Summary for June 25, 2017 Units:  Metric    English   Both
« Previous Day
Next Day »
Daily Weekly Monthly Yearly Custom
  High: Low: Average:
Temperature: 19.5 °C 11.4 °C 15.4 °C
Dew Point: 13.4 °C 7.4 °C 10.4 °C
Humidity: 86 % 52 % 73 %
Wind Speed: 22.5 km/h 4.8 km/h 14.5 km/h
Wind Gust: 40.2 km/h - -
Wind:- - West
Pressure: 1012.8 hPa 1008.4 hPa -
Precipitation: 0 mm    
Historical Graphs
 
 
Tabular Data for June 25, 2017
Time Temperature Dew Point Pressure Wind Wind Speed Wind Gust Humidity Rainfall Rate (Hourly) solar Conditions
00:03 14.7 °C 11.4 °C 1008.7 hPa WSW 14.5 km/h 24.1 km/h 81 % 0 mm 0 W/m2
00:08 14.7 °C 11.4 °C 1009 hPa WSW 12.9 km/h 24.1 km/h 81 % 0 mm 0 W/m2
00:13 14.7 °C 11.4 °C 1009 hPa West 14.5 km/h 24.1 km/h 81 % 0 mm 0 W/m2
00:18 14.7 °C 11.4 °C 1008.7 hPa West 14.5 km/h 24.1 km/h 81 % 0 mm 0 W/m2
00:23 14.7 °C 11.4 °C 1008.7 hPa West 11.3 km/h 20.9 km/h 81 % 0 mm 0 W/m2
00:28 14.7 °C 11.7 °C 1008.7 hPa West 12.9 km/h 22.5 km/h 82 % 0 mm 0 W/m2
00:33 14.7 °C 11.7 °C 1008.7 hPa West 12.9 km/h 22.5 km/h 82 % 0 mm 0 W/m2
00:38 14.7 °C 11.7 °C 1008.7 hPa WSW 12.9 km/h 20.9 km/h 82 % 0 mm 0 W/m2
00:43 14.7 °C 11.7 °C 1008.7 hPa West 12.9 km/h 20.9 km/h 82 % 0 mm 0 W/m2
00:48 14.8 °C 11.8 °C 1008.7 hPa West 12.9 km/h 20.9 km/h 82 % 0 mm 0 W/m2
00:53 14.8 °C 11.6 °C 1008.7 hPa West 12.9 km/h 20.9 km/h 81 % 0 mm 0 W/m2
00:57 14.8 °C 11.6 °C 1008.7 hPa West 11.3 km/h 20.9 km/h 81 % 0 mm 0 W/m2
01:02 14.8 °C 11.6 °C 1008.4 hPa WSW 11.3 km/h 20.9 km/h 81 % 0 mm 0 W/m2
01:07 14.8 °C 11.6 °C 1008.4 hPa WSW 12.9 km/h 20.9 km/h 81 % 0 mm 0 W/m2
01:12 14.8 °C 11.4 °C 1008.4 hPa West 11.3 km/h 19.3 km/h 80 % 0 mm 0 W/m2
01:17 14.8 °C 11.4 °C 1008.4 hPa West 9.7 km/h 17.7 km/h 80 % 0 mm 0 W/m2
01:22 14.8 °C 11.6 °C 1008.4 hPa West 11.3 km/h 17.7 km/h 81 % 0 mm 0 W/m2
01:27 14.8 °C 11.6 °C 1008.4 hPa West 11.3 km/h 19.3 km/h 81 % 0 mm 0 W/m2
01:32 14.8 °C 11.6 °C 1008.4 hPa West 11.3 km/h 19.3 km/h 81 % 0 mm 0 W/m2
01:37 14.8 °C 11.6 °C 1008.4 hPa West 12.9 km/h 20.9 km/h 81 % 0 mm 0 W/m2
01:42 14.8 °C 11.6 °C 1008.4 hPa West 12.9 km/h 20.9 km/h 81 % 0 mm 0 W/m2
01:47 14.8 °C 11.2 °C 1008.4 hPa West 14.5 km/h 35.4 km/h 79 % 0 mm 0 W/m2
01:52 14.8 °C 11.2 °C 1008.7 hPa West 16.1 km/h 35.4 km/h 79 % 0 mm 0 W/m2
01:57 14.8 °C 11 °C 1008.7 hPa West 12.9 km/h 25.7 km/h 78 % 0 mm 0 W/m2
02:02 14.8 °C 10.6 °C 1008.7 hPa West 14.5 km/h 30.6 km/h 76 % 0 mm 0 W/m2
02:07 14.8 °C 10.6 °C 1008.4 hPa West 16.1 km/h 30.6 km/h 76 % 0 mm 0 W/m2
02:12 14.8 °C 10.6 °C 1008.4 hPa West 14.5 km/h 25.7 km/h 76 % 0 mm 0 W/m2
02:17 14.7 °C 10.3 °C 1008.4 hPa West 16.1 km/h 33.8 km/h 75 % 0 mm 0 W/m2
02:22 14.7 °C 10.3 °C 1008.4 hPa West 16.1 km/h 33.8 km/h 75 % 0 mm 0 W/m2
02:27 14.7 °C 10.3 °C 1008.4 hPa West 12.9 km/h 25.7 km/h 75 % 0 mm 0 W/m2
02:32 14.7 °C 10.3 °C 1008.4 hPa West 11.3 km/h 20.9 km/h 75 % 0 mm 0 W/m2
02:37 14.6 °C 10.4 °C 1008.4 hPa West 11.3 km/h 20.9 km/h 76 % 0 mm 0 W/m2
02:42 14.6 °C 10.4 °C 1008.4 hPa West 11.3 km/h 20.9 km/h 76 % 0 mm 0 W/m2
02:43 14.6 °C 10.4 °C 1008.4 hPa West 11.3 km/h 20.9 km/h 76 % 0 mm 0 W/m2
02:48 14.5 °C 10.3 °C 1008.4 hPa West 9.7 km/h 19.3 km/h 76 % 0 mm 0 W/m2
02:53 14.4 °C 10.2 °C 1008.4 hPa West 9.7 km/h 17.7 km/h 76 % 0 mm 0 W/m2
02:58 14.4 °C 10.2 °C 1008.7 hPa West 11.3 km/h 17.7 km/h 76 % 0 mm 0 W/m2
03:03 14.4 °C 10.4 °C 1008.7 hPa WSW 11.3 km/h 17.7 km/h 77 % 0 mm 0 W/m2
03:08 14.3 °C 10.3 °C 1008.4 hPa WSW 9.7 km/h 17.7 km/h 77 % 0 mm 0 W/m2
03:13 14.3 °C 10.3 °C 1008.4 hPa West 9.7 km/h 16.1 km/h 77 % 0 mm 0 W/m2
03:18 14.2 °C 10.2 °C 1008.4 hPa WSW 11.3 km/h 17.7 km/h 77 % 0 mm 0 W/m2
03:23 14.1 °C 10.1 °C 1008.4 hPa West 12.9 km/h 19.3 km/h 77 % 0 mm 0 W/m2
03:28 14.1 °C 10.1 °C 1008.4 hPa WSW 12.9 km/h 24.1 km/h 77 % 0 mm 0 W/m2
03:33 14 °C 10.2 °C 1008.4 hPa WSW 11.3 km/h 24.1 km/h 78 % 0 mm 0 W/m2
03:38 14 °C 10.4 °C 1008.4 hPa West 9.7 km/h 19.3 km/h 79 % 0 mm 0 W/m2
03:43 13.9 °C 10.3 °C 1008.4 hPa West 11.3 km/h 25.7 km/h 79 % 0 mm 0 W/m2
03:48 13.8 °C 10.2 °C 1008.4 hPa West 14.5 km/h 25.7 km/h 79 % 0 mm 0 W/m2
03:53 13.8 °C 10.4 °C 1008.4 hPa West 12.9 km/h 24.1 km/h 80 % 0 mm 0 W/m2
03:58 13.8 °C 10.4 °C 1008.4 hPa West 12.9 km/h 24.1 km/h 80 % 0 mm 0 W/m2
04:03 13.8 °C 10.6 °C 1008.4 hPa West 14.5 km/h 24.1 km/h 81 % 0 mm 0 W/m2
04:08 13.8 °C 10.6 °C 1008.4 hPa West 12.9 km/h 24.1 km/h 81 % 0 mm 0 W/m2
04:13 13.8 °C 10.6 °C 1008.4 hPa West 12.9 km/h 20.9 km/h 81 % 0 mm 0 W/m2
04:18 13.7 °C 10.7 °C 1008.4 hPa West 12.9 km/h 22.5 km/h 82 % 0 mm 0 W/m2
04:23 13.7 °C 10.9 °C 1008.4 hPa West 14.5 km/h 30.6 km/h 83 % 0 mm 0 W/m2
04:28 13.6 °C 10.8 °C 1008.4 hPa West 14.5 km/h 30.6 km/h 83 % 0 mm 0 W/m2
04:33 13.5 °C 10.8 °C 1008.4 hPa West 12.9 km/h 24.1 km/h 84 % 0 mm 0 W/m2
04:38 13.5 °C 10.8 °C 1008.4 hPa West 14.5 km/h 24.1 km/h 84 % 0 mm 0 W/m2
04:43 13.4 °C 10.8 °C 1008.7 hPa West 16.1 km/h 25.7 km/h 84 % 0 mm 0 W/m2
04:48 13.3 °C 10.8 °C 1008.7 hPa West 14.5 km/h 25.7 km/h 85 % 0 mm 5 W/m2
04:54 13.2 °C 10.9 °C 1008.4 hPa West 12.9 km/h 24.1 km/h 86 % 0 mm 7 W/m2
04:59 13.1 °C 10.8 °C 1008.4 hPa West 12.9 km/h 22.5 km/h 86 % 0 mm 9 W/m2
05:04 13.1 °C 10.8 °C 1008.4 hPa West 12.9 km/h 22.5 km/h 86 % 0 mm 11 W/m2
05:09 13 °C 10.7 °C 1008.7 hPa West 11.3 km/h 24.1 km/h 86 % 0 mm 14 W/m2
05:14 12.9 °C 10.6 °C 1008.7 hPa West 12.9 km/h 24.1 km/h 86 % 0 mm 18 W/m2
05:19 12.9 °C 10.6 °C 1008.7 hPa West 12.9 km/h 22.5 km/h 86 % 0 mm 19 W/m2
05:24 12.9 °C 10.6 °C 1008.7 hPa West 11.3 km/h 17.7 km/h 86 % 0 mm 23 W/m2
05:29 12.9 °C 10.6 °C 1008.7 hPa West 9.7 km/h 19.3 km/h 86 % 0 mm 25 W/m2
05:34 12.9 °C 10.6 °C 1008.7 hPa West 11.3 km/h 22.5 km/h 86 % 0 mm 28 W/m2
05:39 13 °C 10.6 °C 1008.7 hPa West 12.9 km/h 24.1 km/h 85 % 0 mm 32 W/m2
05:44 13.1 °C 10.6 °C 1008.7 hPa West 14.5 km/h 24.1 km/h 85 % 0 mm 40 W/m2
05:49 13.1 °C 10.6 °C 1008.4 hPa West 12.9 km/h 20.9 km/h 85 % 0 mm 40 W/m2
05:54 13.2 °C 10.7 °C 1008.7 hPa West 11.3 km/h 17.7 km/h 85 % 0 mm 47 W/m2
05:59 13.2 °C 10.6 °C 1008.4 hPa West 11.3 km/h 22.5 km/h 84 % 0 mm 46 W/m2
06:04 13.3 °C 10.5 °C 1008.7 hPa West 12.9 km/h 24.1 km/h 83 % 0 mm 51 W/m2
06:09 13.3 °C 10.5 °C 1008.7 hPa West 14.5 km/h 25.7 km/h 83 % 0 mm 49 W/m2
06:14 13.3 °C 10.3 °C 1008.7 hPa West 14.5 km/h 25.7 km/h 82 % 0 mm 51 W/m2
06:19 13.4 °C 10.4 °C 1008.7 hPa West 12.9 km/h 24.1 km/h 82 % 0 mm 58 W/m2
06:24 13.4 °C 10.4 °C 1008.7 hPa West 11.3 km/h 22.5 km/h 82 % 0 mm 65 W/m2
06:29 13.4 °C 10.4 °C 1008.7 hPa West 12.9 km/h 25.7 km/h 82 % 0 mm 69 W/m2
06:34 13.4 °C 10.4 °C 1008.7 hPa West 14.5 km/h 25.7 km/h 82 % 0 mm 79 W/m2
06:39 13.5 °C 10.5 °C 1008.7 hPa West 14.5 km/h 22.5 km/h 82 % 0 mm 81 W/m2
06:44 13.5 °C 10.5 °C 1008.7 hPa West 14.5 km/h 20.9 km/h 82 % 0 mm 77 W/m2
06:49 13.6 °C 10.6 °C 1008.7 hPa West 14.5 km/h 22.5 km/h 82 % 0 mm 88 W/m2
06:54 13.6 °C 10.6 °C 1008.7 hPa West 14.5 km/h 22.5 km/h 82 % 0 mm 95 W/m2
06:59 13.6 °C 10.6 °C 1008.7 hPa West 14.5 km/h 24.1 km/h 82 % 0 mm 113 W/m2
07:04 13.6 °C 10.6 °C 1009 hPa West 14.5 km/h 24.1 km/h 82 % 0 mm 114 W/m2
07:09 13.7 °C 10.7 °C 1008.7 hPa West 12.9 km/h 24.1 km/h 82 % 0 mm 114 W/m2
07:14 13.7 °C 10.7 °C 1009 hPa West 14.5 km/h 24.1 km/h 82 % 0 mm 116 W/m2
07:19 13.8 °C 10.6 °C 1009 hPa West 16.1 km/h 25.7 km/h 81 % 0 mm 116 W/m2
07:24 13.8 °C 10.6 °C 1009 hPa West 14.5 km/h 25.7 km/h 81 % 0 mm 116 W/m2
07:29 13.9 °C 10.7 °C 1009 hPa West 12.9 km/h 22.5 km/h 81 % 0 mm 128 W/m2
07:32 13.9 °C 10.7 °C 1009 hPa West 12.9 km/h 22.5 km/h 81 % 0 mm 123 W/m2
07:37 14 °C 10.6 °C 1009 hPa West 12.9 km/h 22.5 km/h 80 % 0 mm 120 W/m2
07:42 14.1 °C 10.7 °C 1009 hPa WSW 14.5 km/h 25.7 km/h 80 % 0 mm 156 W/m2
07:47 14.1 °C 10.7 °C 1009 hPa WSW 14.5 km/h 25.7 km/h 80 % 0 mm 132 W/m2
07:52 14.1 °C 10.7 °C 1009 hPa WSW 14.5 km/h 22.5 km/h 80 % 0 mm 139 W/m2
07:57 14.1 °C 10.7 °C 1009 hPa WSW 16.1 km/h 25.7 km/h 80 % 0 mm 229 W/m2
08:02 14.2 °C 10.8 °C 1009 hPa West 14.5 km/h 25.7 km/h 80 % 0 mm 193 W/m2
08:07 14.3 °C 10.9 °C 1009 hPa WSW 14.5 km/h 29 km/h 80 % 0 mm 244 W/m2
08:12 14.3 °C 10.7 °C 1009 hPa WSW 17.7 km/h 29 km/h 79 % 0 mm 195 W/m2
08:17 14.3 °C 10.7 °C 1009 hPa WSW 16.1 km/h 25.7 km/h 79 % 0 mm 160 W/m2
08:22 14.4 °C 11 °C 1009 hPa WSW 14.5 km/h 25.7 km/h 80 % 0 mm 230 W/m2
08:27 14.5 °C 11.1 °C 1009 hPa West 14.5 km/h 24.1 km/h 80 % 0 mm 265 W/m2
08:32 14.7 °C 11.1 °C 1009 hPa West 14.5 km/h 24.1 km/h 79 % 0 mm 320 W/m2
08:37 14.7 °C 10.9 °C 1009 hPa West 16.1 km/h 30.6 km/h 78 % 0 mm 262 W/m2
08:42 14.8 °C 11 °C 1009 hPa West 17.7 km/h 30.6 km/h 78 % 0 mm 200 W/m2
08:47 14.8 °C 10.8 °C 1009 hPa West 16.1 km/h 30.6 km/h 77 % 0 mm 171 W/m2
08:52 14.7 °C 10.7 °C 1009 hPa West 16.1 km/h 24.1 km/h 77 % 0 mm 132 W/m2
08:57 14.7 °C 10.9 °C 1009 hPa West 14.5 km/h 24.1 km/h 78 % 0 mm 149 W/m2
09:02 14.7 °C 10.9 °C 1009.4 hPa West 12.9 km/h 29 km/h 78 % 0 mm 120 W/m2
09:07 14.7 °C 10.9 °C 1009.4 hPa West 14.5 km/h 29 km/h 78 % 0 mm 109 W/m2
09:12 14.6 °C 10.8 °C 1009.4 hPa West 16.1 km/h 29 km/h 78 % 0 mm 125 W/m2
09:17 14.6 °C 10.8 °C 1009.4 hPa West 16.1 km/h 25.7 km/h 78 % 0 mm 127 W/m2
09:22 14.6 °C 10.8 °C 1009.4 hPa West 14.5 km/h 24.1 km/h 78 % 0 mm 148 W/m2
09:27 14.6 °C 10.8 °C 1009.4 hPa West 12.9 km/h 22.5 km/h 78 % 0 mm 116 W/m2
09:32 14.6 °C 10.8 °C 1009.4 hPa West 12.9 km/h 24.1 km/h 78 % 0 mm 121 W/m2
09:38 14.6 °C 11 °C 1009.4 hPa WSW 12.9 km/h 24.1 km/h 79 % 0 mm 134 W/m2
09:43 14.5 °C 10.9 °C 1009.4 hPa WSW 12.9 km/h 24.1 km/h 79 % 0 mm 200 W/m2
09:48 14.6 °C 11 °C 1009.4 hPa WSW 14.5 km/h 24.1 km/h 79 % 0 mm 271 W/m2
09:53 14.7 °C 11.1 °C 1009.4 hPa WSW 12.9 km/h 24.1 km/h 79 % 0 mm 248 W/m2
09:56 14.8 °C 11.2 °C 1009.4 hPa WSW 12.9 km/h 24.1 km/h 79 % 0 mm 265 W/m2
10:01 14.9 °C 11.1 °C 1009.4 hPa WSW 16.1 km/h 30.6 km/h 78 % 0 mm 269 W/m2
10:06 15 °C 11.2 °C 1009.4 hPa West 17.7 km/h 30.6 km/h 78 % 0 mm 260 W/m2
10:11 15.1 °C 11.5 °C 1009.4 hPa West 16.1 km/h 29 km/h 79 % 0 mm 315 W/m2
10:16 15.1 °C 11.5 °C 1009.4 hPa WSW 16.1 km/h 29 km/h 79 % 0 mm 397 W/m2
10:21 15.1 °C 11.3 °C 1009.4 hPa WSW 17.7 km/h 29 km/h 78 % 0 mm 434 W/m2
10:22 15.2 °C 11.6 °C 1009.4 hPa WSW 17.7 km/h 29 km/h 79 % 0 mm 434 W/m2
10:27 15.4 °C 11.8 °C 1009.4 hPa WSW 16.1 km/h 24.1 km/h 79 % 0 mm 436 W/m2
10:32 15.7 °C 11.7 °C 1009.4 hPa West 14.5 km/h 25.7 km/h 77 % 0 mm 455 W/m2
10:37 15.9 °C 11.4 °C 1009.4 hPa West 16.1 km/h 25.7 km/h 75 % 0 mm 392 W/m2
10:42 16.1 °C 11.4 °C 1009.4 hPa West 19.3 km/h 37 km/h 74 % 0 mm 334 W/m2
10:47 16.1 °C 11.7 °C 1009.4 hPa West 19.3 km/h 37 km/h 75 % 0 mm 295 W/m2
10:52 16.2 °C 11.8 °C 1009.4 hPa West 17.7 km/h 30.6 km/h 75 % 0 mm 327 W/m2
10:57 16.2 °C 11.3 °C 1009.4 hPa West 17.7 km/h 29 km/h 73 % 0 mm 334 W/m2
11:02 16.2 °C 11.3 °C 1009.4 hPa West 17.7 km/h 29 km/h 73 % 0 mm 350 W/m2
11:07 16.2 °C 11.6 °C 1009.4 hPa West 17.7 km/h 29 km/h 74 % 0 mm 336 W/m2
11:12 16.4 °C 11.6 °C 1009.4 hPa West 17.7 km/h 32.2 km/h 73 % 0 mm 313 W/m2
11:17 16.6 °C 11.6 °C 1009.4 hPa West 19.3 km/h 32.2 km/h 72 % 0 mm 253 W/m2
11:22 16.7 °C 11.6 °C 1009.4 hPa West 19.3 km/h 32.2 km/h 72 % 0 mm 424 W/m2
11:27 16.8 °C 11.5 °C 1009.4 hPa West 19.3 km/h 32.2 km/h 71 % 0 mm 327 W/m2
11:32 17.1 °C 11.8 °C 1009.4 hPa West 19.3 km/h 30.6 km/h 71 % 0 mm 327 W/m2
11:37 17.4 °C 11.9 °C 1009.4 hPa West 17.7 km/h 32.2 km/h 70 % 0 mm 327 W/m2
11:42 17.7 °C 11.7 °C 1009.4 hPa West 19.3 km/h 32.2 km/h 68 % 0 mm 555 W/m2
11:47 17.9 °C 11.7 °C 1009.4 hPa West 19.3 km/h 32.2 km/h 67 % 0 mm 566 W/m2
11:52 18.1 °C 11.9 °C 1009.4 hPa WSW 17.7 km/h 30.6 km/h 67 % 0 mm 714 W/m2
11:57 18 °C 11.6 °C 1009.4 hPa West 17.7 km/h 32.2 km/h 66 % 0 mm 693 W/m2
12:02 18.1 °C 11.7 °C 1009.4 hPa West 19.3 km/h 33.8 km/h 66 % 0 mm 515 W/m2
12:07 17.9 °C 11.9 °C 1009.4 hPa West 20.9 km/h 33.8 km/h 68 % 0 mm 564 W/m2
12:12 18.1 °C 12.1 °C 1009.4 hPa West 17.7 km/h 30.6 km/h 68 % 0 mm 519 W/m2
12:18 18 °C 11.8 °C 1009.4 hPa WSW 17.7 km/h 33.8 km/h 67 % 0 mm 431 W/m2
12:23 18 °C 12 °C 1009.4 hPa WSW 17.7 km/h 33.8 km/h 68 % 0 mm 603 W/m2
12:28 17.9 °C 11.9 °C 1009.4 hPa WSW 17.7 km/h 30.6 km/h 68 % 0 mm 373 W/m2
12:33 17.9 °C 12.3 °C 1009.4 hPa WSW 16.1 km/h 24.1 km/h 70 % 0 mm 656 W/m2
12:38 18 °C 12 °C 1009.4 hPa West 17.7 km/h 30.6 km/h 68 % 0 mm 441 W/m2
12:43 18.3 °C 12.3 °C 1009.4 hPa West 19.3 km/h 30.6 km/h 68 % 0 mm 301 W/m2
12:48 18.5 °C 12.5 °C 1009.4 hPa West 19.3 km/h 33.8 km/h 68 % 0 mm 1129 W/m2
12:53 18.6 °C 12.3 °C 1009.4 hPa West 19.3 km/h 33.8 km/h 67 % 0 mm 1109 W/m2
12:58 18.7 °C 12.4 °C 1009.4 hPa West 19.3 km/h 32.2 km/h 67 % 0 mm 1081 W/m2
13:03 18.7 °C 12.4 °C 1009.4 hPa West 19.3 km/h 33.8 km/h 67 % 0 mm 364 W/m2
13:08 18.9 °C 12.9 °C 1009 hPa WNW 17.7 km/h 33.8 km/h 68 % 0 mm 838 W/m2
13:13 18.8 °C 13 °C 1009.4 hPa WNW 19.3 km/h 37 km/h 69 % 0 mm 462 W/m2
13:18 18.5 °C 13.3 °C 1009.4 hPa WNW 19.3 km/h 37 km/h 72 % 0 mm 517 W/m2
13:23 18.1 °C 13.4 °C 1009.4 hPa WNW 16.1 km/h 30.6 km/h 74 % 0 mm 926 W/m2
13:28 18.2 °C 12.8 °C 1009.4 hPa West 16.1 km/h 30.6 km/h 71 % 0 mm 406 W/m2
13:33 18.4 °C 12.8 °C 1009.4 hPa West 16.1 km/h 30.6 km/h 70 % 0 mm 396 W/m2
13:38 18.3 °C 12.9 °C 1009.4 hPa West 16.1 km/h 25.7 km/h 71 % 0 mm 459 W/m2
13:43 18.3 °C 12.9 °C 1009.4 hPa West 16.1 km/h 25.7 km/h 71 % 0 mm 436 W/m2
13:48 18.4 °C 12.8 °C 1009 hPa West 16.1 km/h 24.1 km/h 70 % 0 mm 661 W/m2
13:53 18.7 °C 12.9 °C 1009 hPa West 17.7 km/h 30.6 km/h 69 % 0 mm 661 W/m2
13:58 19 °C 12.9 °C 1009.4 hPa West 16.1 km/h 30.6 km/h 68 % 0 mm 350 W/m2
14:03 18.9 °C 12.4 °C 1009 hPa WNW 16.1 km/h 32.2 km/h 66 % 0 mm 302 W/m2
14:08 18.9 °C 12.6 °C 1009 hPa WNW 17.7 km/h 32.2 km/h 67 % 0 mm 281 W/m2
14:13 18.9 °C 12.6 °C 1009.4 hPa WNW 16.1 km/h 29 km/h 67 % 0 mm 244 W/m2
14:18 18.7 °C 12.4 °C 1009 hPa WNW 17.7 km/h 32.2 km/h 67 % 0 mm 1099 W/m2
14:23 18.8 °C 12.6 °C 1009 hPa West 17.7 km/h 32.2 km/h 67 % 0 mm 1099 W/m2
14:28 19 °C 12.3 °C 1009 hPa West 17.7 km/h 30.6 km/h 65 % 0 mm 1204 W/m2
14:33 19.2 °C 12.7 °C 1009.4 hPa West 19.3 km/h 30.6 km/h 66 % 0 mm 403 W/m2
14:38 19.1 °C 12.6 °C 1009.4 hPa WNW 19.3 km/h 35.4 km/h 66 % 0 mm 485 W/m2
14:43 18.9 °C 12.2 °C 1009.4 hPa WNW 19.3 km/h 35.4 km/h 65 % 0 mm 485 W/m2
14:48 19.1 °C 12.1 °C 1009.4 hPa WNW 20.9 km/h 33.8 km/h 64 % 0 mm 1056 W/m2
14:53 18.9 °C 11.9 °C 1009.4 hPa West 20.9 km/h 32.2 km/h 64 % 0 mm 399 W/m2
14:58 18.9 °C 12.2 °C 1009.4 hPa West 19.3 km/h 32.2 km/h 65 % 0 mm 766 W/m2
15:03 19.4 °C 12.4 °C 1009.4 hPa WNW 16.1 km/h 29 km/h 64 % 0 mm 918 W/m2
15:08 19.5 °C 12.3 °C 1009.4 hPa West 16.1 km/h 29 km/h 63 % 0 mm 304 W/m2
15:13 19.1 °C 11.9 °C 1009.4 hPa West 17.7 km/h 30.6 km/h 63 % 0 mm 262 W/m2
15:18 18.8 °C 11.6 °C 1009.4 hPa WNW 19.3 km/h 32.2 km/h 63 % 0 mm 445 W/m2
15:23 18.7 °C 12 °C 1009.4 hPa WNW 19.3 km/h 32.2 km/h 65 % 0 mm 573 W/m2
15:28 18.7 °C 11.5 °C 1009.7 hPa WNW 19.3 km/h 30.6 km/h 63 % 0 mm 274 W/m2
15:34 18.5 °C 11.6 °C 1009.7 hPa WNW 17.7 km/h 30.6 km/h 64 % 0 mm 457 W/m2
15:39 18.4 °C 11.2 °C 1009.7 hPa WNW 16.1 km/h 32.2 km/h 63 % 0 mm 555 W/m2
15:44 18.7 °C 11.5 °C 1009.7 hPa WNW 16.1 km/h 32.2 km/h 63 % 0 mm 657 W/m2
15:49 18.7 °C 11.3 °C 1009.7 hPa West 17.7 km/h 30.6 km/h 62 % 0 mm 341 W/m2
15:54 18.6 °C 10.9 °C 1009.7 hPa West 16.1 km/h 30.6 km/h 61 % 0 mm 250 W/m2
15:59 18.3 °C 11.1 °C 1009.7 hPa WNW 16.1 km/h 30.6 km/h 63 % 0 mm 394 W/m2
16:04 18.3 °C 11.1 °C 1009.7 hPa WNW 17.7 km/h 33.8 km/h 63 % 0 mm 216 W/m2
16:09 17.9 °C 10.8 °C 1010 hPa WNW 19.3 km/h 33.8 km/h 63 % 0 mm 153 W/m2
16:14 17.6 °C 10.7 °C 1009.7 hPa WNW 17.7 km/h 30.6 km/h 64 % 0 mm 290 W/m2
16:19 17.3 °C 10.4 °C 1009.7 hPa WNW 14.5 km/h 30.6 km/h 64 % 0 mm 250 W/m2
16:24 17.3 °C 10.4 °C 1010 hPa WNW 14.5 km/h 25.7 km/h 64 % 0 mm 178 W/m2
16:29 17.3 °C 10.7 °C 1010 hPa WNW 12.9 km/h 25.7 km/h 65 % 0 mm 202 W/m2
16:34 17.3 °C 10.7 °C 1010 hPa WNW 12.9 km/h 30.6 km/h 65 % 0 mm 155 W/m2
16:39 17.2 °C 10.6 °C 1010 hPa WNW 16.1 km/h 32.2 km/h 65 % 0 mm 209 W/m2
16:44 17.1 °C 10.2 °C 1010 hPa WNW 17.7 km/h 32.2 km/h 64 % 0 mm 160 W/m2
16:49 17.1 °C 10.4 °C 1010 hPa WNW 16.1 km/h 30.6 km/h 65 % 0 mm 160 W/m2
16:54 17 °C 10.1 °C 1010 hPa WNW 14.5 km/h 25.7 km/h 64 % 0 mm 260 W/m2
16:59 17.1 °C 10.2 °C 1010 hPa WNW 16.1 km/h 32.2 km/h 64 % 0 mm 302 W/m2
17:04 17.2 °C 10.3 °C 1010 hPa WNW 16.1 km/h 33.8 km/h 64 % 0 mm 234 W/m2
17:09 17.3 °C 10.2 °C 1010 hPa WNW 16.1 km/h 33.8 km/h 63 % 0 mm 329 W/m2
17:14 17.3 °C 9.7 °C 1010 hPa WNW 19.3 km/h 33.8 km/h 61 % 0 mm 248 W/m2
17:19 17.4 °C 10.1 °C 1010 hPa WNW 17.7 km/h 33.8 km/h 62 % 0 mm 236 W/m2
17:24 17.6 °C 10 °C 1010 hPa WNW 12.9 km/h 22.5 km/h 61 % 0 mm 255 W/m2
17:27 17.6 °C 10 °C 1010 hPa WNW 14.5 km/h 29 km/h 61 % 0 mm 283 W/m2
17:32 17.8 °C 9.9 °C 1010 hPa WNW 17.7 km/h 37 km/h 60 % 0 mm 341 W/m2
17:37 18 °C 9.6 °C 1010 hPa WNW 22.5 km/h 38.6 km/h 58 % 0 mm 322 W/m2
17:42 18.1 °C 9.4 °C 1010 hPa WNW 20.9 km/h 38.6 km/h 57 % 0 mm 679 W/m2
17:47 18.3 °C 9.1 °C 1010 hPa WNW 19.3 km/h 40.2 km/h 55 % 0 mm 601 W/m2
17:52 18.2 °C 9 °C 1010 hPa WNW 20.9 km/h 40.2 km/h 55 % 0 mm 202 W/m2
17:57 18 °C 8.8 °C 1010 hPa WNW 19.3 km/h 40.2 km/h 55 % 0 mm 552 W/m2
18:02 18 °C 8.6 °C 1010 hPa WNW 20.9 km/h 40.2 km/h 54 % 0 mm 515 W/m2
18:07 18 °C 8.6 °C 1010 hPa WNW 19.3 km/h 38.6 km/h 54 % 0 mm 483 W/m2
18:12 18.1 °C 8.4 °C 1010.4 hPa WNW 17.7 km/h 38.6 km/h 53 % 0 mm 450 W/m2
18:18 18.2 °C 8.2 °C 1010.4 hPa WNW 16.1 km/h 37 km/h 52 % 0 mm 420 W/m2
18:23 18.2 °C 8.2 °C 1010.4 hPa WNW 17.7 km/h 38.6 km/h 52 % 0 mm 429 W/m2
18:28 18.2 °C 8.2 °C 1010.4 hPa WNW 17.7 km/h 38.6 km/h 52 % 0 mm 425 W/m2
18:33 18.1 °C 8.7 °C 1010.7 hPa WNW 17.7 km/h 35.4 km/h 54 % 0 mm 429 W/m2
18:38 18 °C 8.3 °C 1010.7 hPa NW 16.1 km/h 30.6 km/h 53 % 0 mm 396 W/m2
18:43 17.8 °C 7.8 °C 1010.7 hPa WNW 17.7 km/h 30.6 km/h 52 % 0 mm 366 W/m2
18:48 17.6 °C 7.6 °C 1010.7 hPa WNW 16.1 km/h 30.6 km/h 52 % 0 mm 338 W/m2
18:53 17.4 °C 7.7 °C 1010.7 hPa WNW 14.5 km/h 29 km/h 53 % 0 mm 338 W/m2
18:58 17.2 °C 7.6 °C 1010.7 hPa NW 14.5 km/h 29 km/h 53 % 0 mm 206 W/m2
19:03 17.1 °C 7.4 °C 1011.1 hPa NW 16.1 km/h 37 km/h 53 % 0 mm 100 W/m2
19:08 16.8 °C 7.4 °C 1011.1 hPa NW 16.1 km/h 37 km/h 54 % 0 mm 49 W/m2
19:13 16.4 °C 7.6 °C 1011.1 hPa WNW 12.9 km/h 22.5 km/h 56 % 0 mm 72 W/m2
19:18 16.1 °C 7.6 °C 1011.1 hPa WNW 16.1 km/h 30.6 km/h 57 % 0 mm 62 W/m2
19:23 15.8 °C 7.8 °C 1011.1 hPa WNW 14.5 km/h 30.6 km/h 59 % 0 mm 63 W/m2
19:28 15.7 °C 7.7 °C 1011.1 hPa NW 12.9 km/h 30.6 km/h 59 % 0 mm 58 W/m2
19:33 15.6 °C 7.8 °C 1011.1 hPa WNW 12.9 km/h 30.6 km/h 60 % 0 mm 83 W/m2
19:38 15.6 °C 7.8 °C 1011.1 hPa WNW 12.9 km/h 24.1 km/h 60 % 0 mm 128 W/m2
19:44 15.6 °C 8.1 °C 1011.4 hPa WNW 12.9 km/h 22.5 km/h 61 % 0 mm 49 W/m2
19:49 15.5 °C 7.8 °C 1011.4 hPa WNW 14.5 km/h 24.1 km/h 60 % 0 mm 35 W/m2
19:54 15.3 °C 7.6 °C 1011.4 hPa WNW 14.5 km/h 29 km/h 60 % 0 mm 65 W/m2
19:59 15.2 °C 7.7 °C 1011.4 hPa WNW 12.9 km/h 29 km/h 61 % 0 mm 28 W/m2
20:04 15.1 °C 7.6 °C 1011.4 hPa WNW 11.3 km/h 22.5 km/h 61 % 0 mm 35 W/m2
20:09 15.1 °C 7.9 °C 1011.4 hPa WNW 11.3 km/h 19.3 km/h 62 % 0 mm 35 W/m2
20:14 14.9 °C 7.4 °C 1011.4 hPa WNW 11.3 km/h 19.3 km/h 61 % 0 mm 40 W/m2
20:19 14.9 °C 7.4 °C 1011.4 hPa WNW 14.5 km/h 29 km/h 61 % 0 mm 33 W/m2
20:24 14.8 °C 7.6 °C 1011.4 hPa WNW 17.7 km/h 30.6 km/h 62 % 0 mm 30 W/m2
20:29 14.7 °C 7.5 °C 1011.4 hPa WNW 16.1 km/h 30.6 km/h 62 % 0 mm 32 W/m2
20:34 14.6 °C 7.6 °C 1011.4 hPa WNW 14.5 km/h 30.6 km/h 63 % 0 mm 35 W/m2
20:39 14.6 °C 7.9 °C 1011.4 hPa WNW 14.5 km/h 30.6 km/h 64 % 0 mm 35 W/m2
20:44 14.5 °C 7.8 °C 1011.4 hPa WNW 12.9 km/h 20.9 km/h 64 % 0 mm 28 W/m2
20:49 14.4 °C 7.9 °C 1011.4 hPa WNW 11.3 km/h 20.9 km/h 65 % 0 mm 33 W/m2
20:54 14.4 °C 8.1 °C 1011.4 hPa WNW 11.3 km/h 22.5 km/h 66 % 0 mm 32 W/m2
20:59 14.3 °C 8.1 °C 1011.4 hPa WNW 12.9 km/h 22.5 km/h 66 % 0 mm 32 W/m2
21:04 14.3 °C 8.1 °C 1011.7 hPa WNW 12.9 km/h 22.5 km/h 66 % 0 mm 26 W/m2
21:09 14.3 °C 8.3 °C 1011.7 hPa WNW 11.3 km/h 20.9 km/h 67 % 0 mm 23 W/m2
21:14 14.3 °C 8.3 °C 1011.7 hPa WNW 11.3 km/h 20.9 km/h 67 % 0 mm 21 W/m2
21:19 14.3 °C 8.4 °C 1011.7 hPa WNW 9.7 km/h 17.7 km/h 68 % 0 mm 16 W/m2
21:24 14.2 °C 8.4 °C 1012.1 hPa WNW 9.7 km/h 20.9 km/h 68 % 0 mm 9 W/m2
21:29 14.2 °C 8.4 °C 1012.1 hPa WNW 11.3 km/h 20.9 km/h 68 % 0 mm 7 W/m2
21:34 14.1 °C 8.5 °C 1012.1 hPa WNW 9.7 km/h 17.7 km/h 69 % 0 mm 5 W/m2
21:39 14.1 °C 8.5 °C 1012.1 hPa WNW 9.7 km/h 17.7 km/h 69 % 0 mm 0 W/m2
21:44 14 °C 8.6 °C 1012.1 hPa WNW 9.7 km/h 16.1 km/h 70 % 0 mm 0 W/m2
21:49 13.9 °C 8.5 °C 1012.1 hPa West 11.3 km/h 20.9 km/h 70 % 0 mm 0 W/m2
21:54 13.8 °C 8.4 °C 1012.4 hPa West 12.9 km/h 24.1 km/h 70 % 0 mm 0 W/m2
21:59 13.8 °C 8.6 °C 1012.4 hPa WNW 9.7 km/h 24.1 km/h 71 % 0 mm 0 W/m2
22:04 13.7 °C 8.7 °C 1012.4 hPa WNW 8 km/h 14.5 km/h 72 % 0 mm 0 W/m2
22:09 13.7 °C 8.7 °C 1012.4 hPa WNW 9.7 km/h 17.7 km/h 72 % 0 mm 0 W/m2
22:14 13.6 °C 8.7 °C 1012.4 hPa WNW 11.3 km/h 17.7 km/h 72 % 0 mm 0 W/m2
22:19 13.4 °C 8.7 °C 1012.4 hPa WNW 8 km/h 16.1 km/h 73 % 0 mm 0 W/m2
22:24 13.3 °C 8.6 °C 1012.4 hPa WNW 8 km/h 14.5 km/h 73 % 0 mm 0 W/m2
22:25 13.3 °C 8.6 °C 1012.4 hPa WNW 8 km/h 12.9 km/h 73 % 0 mm 0 W/m2
22:30 13.2 °C 8.7 °C 1012.4 hPa WNW 8 km/h 14.5 km/h 74 % 0 mm 0 W/m2
22:35 13 °C 8.7 °C 1012.4 hPa WNW 9.7 km/h 16.1 km/h 75 % 0 mm 0 W/m2
22:40 12.8 °C 8.7 °C 1012.4 hPa WNW 9.7 km/h 19.3 km/h 76 % 0 mm 0 W/m2
22:45 12.7 °C 8.8 °C 1012.8 hPa WNW 9.7 km/h 19.3 km/h 77 % 0 mm 0 W/m2
22:50 12.6 °C 8.7 °C 1012.8 hPa WNW 8 km/h 14.5 km/h 77 % 0 mm 0 W/m2
22:55 12.4 °C 8.7 °C 1012.8 hPa WNW 8 km/h 14.5 km/h 78 % 0 mm 0 W/m2
23:00 12.4 °C 8.7 °C 1012.8 hPa WNW 9.7 km/h 16.1 km/h 78 % 0 mm 0 W/m2
23:05 12.3 °C 8.8 °C 1012.8 hPa WNW 11.3 km/h 17.7 km/h 79 % 0 mm 0 W/m2
23:10 12.2 °C 8.7 °C 1012.8 hPa WNW 9.7 km/h 17.7 km/h 79 % 0 mm 0 W/m2
23:15 12.1 °C 8.6 °C 1012.4 hPa WNW 9.7 km/h 17.7 km/h 79 % 0 mm 0 W/m2
23:20 12 °C 8.4 °C 1012.8 hPa WNW 9.7 km/h 16.1 km/h 79 % 0 mm 0 W/m2
23:25 11.9 °C 8.6 °C 1012.8 hPa WNW 6.4 km/h 16.1 km/h 80 % 0 mm 0 W/m2
23:30 11.8 °C 8.4 °C 1012.8 hPa NW 4.8 km/h 12.9 km/h 80 % 0 mm 0 W/m2
23:35 11.7 °C 8.4 °C 1012.8 hPa WNW 6.4 km/h 11.3 km/h 80 % 0 mm 0 W/m2
23:40 11.6 °C 8.3 °C 1012.8 hPa WNW 8 km/h 14.5 km/h 80 % 0 mm 0 W/m2
23:45 11.6 °C 8.3 °C 1012.8 hPa WNW 8 km/h 14.5 km/h 80 % 0 mm 0 W/m2
23:50 11.5 °C 8.2 °C 1012.8 hPa WNW 9.7 km/h 19.3 km/h 80 % 0 mm 0 W/m2
23:55 11.4 °C 8.1 °C 1012.8 hPa WNW 9.7 km/h 19.3 km/h 80 % 0 mm 0 W/m2
Delerius-Weather
Compliments of Weather Underground - 2.25 mb

Data updates at regular intervals.